Time;durP1;ratioP1;P1;durP2;ratioP2;P2;SDS_P1;SDS_P2;PMS_P1;PMS_P2;Temp;Humidity;BMP_temperature;BMP_pressure;BME280_temperature;BME280_humidity;BME280_pressure;Samples;Min_cycle;Max_cycle;Signal;HPM_P1;HPM_P2
2022/07/02 00:02:13;;;;;;;4.70;4.30;;;;;;;13.06;100.00;98814.44;5135084;27;20673;-69
2022/07/02 00:04:44;;;;;;;4.20;3.80;;;;;;;13.08;100.00;98806.41;5135121;27;20638;-69
2022/07/02 00:07:11;;;;;;;4.90;4.20;;;;;;;13.07;100.00;98810.00;5134778;27;20230;-69
2022/07/02 00:09:38;;;;;;;5.53;4.80;;;;;;;13.06;100.00;98813.59;5133262;27;20215;-69
2022/07/02 00:12:05;;;;;;;5.10;4.60;;;;;;;13.08;100.00;98798.44;5134922;27;20226;-69
2022/07/02 00:14:34;;;;;;;5.03;4.37;;;;;;;13.09;100.00;98800.13;5135223;27;20215;-69
2022/07/02 00:17:01;;;;;;;4.90;4.40;;;;;;;13.04;100.00;98808.41;5135184;27;20223;-69
2022/07/02 00:19:28;;;;;;;4.67;4.17;;;;;;;13.00;100.00;98811.34;5134975;27;20226;-69
2022/07/02 00:21:58;;;;;;;5.33;4.23;;;;;;;12.98;100.00;98807.97;5134935;27;20216;-69
2022/07/02 00:24:25;;;;;;;5.20;4.70;;;;;;;12.93;100.00;98810.91;5134845;27;20207;-69
2022/07/02 00:26:57;;;;;;;4.87;4.37;;;;;;;12.91;100.00;98809.31;5134585;27;20220;-69
2022/07/02 00:29:30;;;;;;;5.77;4.57;;;;;;;12.90;100.00;98811.09;5134855;27;20315;-69
2022/07/02 00:31:58;;;;;;;5.20;4.37;;;;;;;12.91;100.00;98809.31;5134816;27;20208;-69
2022/07/02 00:34:26;;;;;;;5.23;4.17;;;;;;;12.91;100.00;98809.31;5132665;27;20309;-69
2022/07/02 00:36:54;;;;;;;5.77;4.10;;;;;;;12.91;100.00;98814.63;5134128;27;20721;-71
2022/07/02 00:39:22;;;;;;;4.90;4.40;;;;;;;12.91;100.00;98810.13;5133930;27;20214;-71
2022/07/02 00:41:50;;;;;;;4.53;4.13;;;;;;;12.91;100.00;98811.97;5134731;27;20211;-71
2022/07/02 00:44:18;;;;;;;4.60;4.20;;;;;;;12.89;100.00;98812.06;5134478;27;20220;-71
2022/07/02 00:46:46;;;;;;;4.80;4.20;;;;;;;12.83;100.00;98811.63;5125533;27;20210;-71
2022/07/02 00:49:13;;;;;;;5.67;4.00;;;;;;;12.81;100.00;98813.53;5125476;27;20664;-70
2022/07/02 00:51:39;;;;;;;4.67;4.10;;;;;;;12.74;100.00;98810.44;5126351;27;20246;-70
2022/07/02 00:54:06;;;;;;;5.13;4.50;;;;;;;12.72;100.00;98811.50;5126351;27;20207;-70
2022/07/02 00:56:34;;;;;;;5.63;4.60;;;;;;;12.69;100.00;98809.03;5125833;27;20296;-70
2022/07/02 00:59:03;;;;;;;5.27;4.77;;;;;;;12.64;100.00;98816.44;5126948;27;20686;-70
2022/07/02 01:01:29;;;;;;;4.80;4.37;;;;;;;12.61;100.00;98814.88;5132509;27;20214;-70
2022/07/02 01:03:57;;;;;;;4.73;4.30;;;;;;;12.59;100.00;98810.63;5133732;27;20225;-70
2022/07/02 01:06:24;;;;;;;4.47;4.07;;;;;;;12.57;100.00;98810.72;5134002;27;20207;-70
2022/07/02 01:11:39;;;;;;;4.27;3.90;;;;;;;12.50;100.00;98800.63;5133690;27;20600;-70
2022/07/02 01:14:05;;;;;;;4.57;4.17;;;;;;;12.48;100.00;98798.06;5129240;27;20568;-69
2022/07/02 01:16:32;;;;;;;4.53;4.07;;;;;;;12.49;100.00;98796.28;5134092;27;20305;-70
2022/07/02 01:18:59;;;;;;;4.27;3.87;;;;;;;12.45;100.00;98803.56;5133613;27;20218;-70
2022/07/02 01:21:25;;;;;;;4.33;3.93;;;;;;;12.41;100.00;98795.94;5133491;27;20214;-70
2022/07/02 01:23:54;;;;;;;4.60;4.20;;;;;;;12.36;100.00;98793.56;5133149;27;20217;-70
2022/07/02 01:26:20;;;;;;;4.27;3.87;;;;;;;12.34;100.00;98797.28;5133430;27;20218;-70
2022/07/02 01:28:47;;;;;;;4.10;3.70;;;;;;;12.28;100.00;98797.69;5131868;27;20240;-69
2022/07/02 01:31:14;;;;;;;4.10;3.70;;;;;;;12.26;100.00;98797.78;5133596;27;20530;-70
2022/07/02 01:33:40;;;;;;;4.20;3.80;;;;;;;12.23;100.00;98805.09;5133334;27;20210;-70
2022/07/02 01:36:07;;;;;;;4.60;3.50;;;;;;;12.23;100.00;98800.63;5133386;27;20217;-70
2022/07/02 01:38:34;;;;;;;4.13;3.73;;;;;;;12.21;100.00;98796.38;5133763;27;20569;-70
2022/07/02 01:43:42;;;;;;;4.60;4.20;;;;;;;12.23;100.00;98794.50;5128545;27;20678;-70
2022/07/02 01:46:09;;;;;;;4.43;3.97;;;;;;;12.22;100.00;98800.75;5133608;27;20234;-70
2022/07/02 01:48:35;;;;;;;5.20;4.07;;;;;;;12.18;100.00;98789.47;5133087;28;20234;-70
2022/07/02 01:51:02;;;;;;;4.53;4.13;;;;;;;12.17;100.00;98794.88;5133396;28;20215;-69
2022/07/02 01:53:28;;;;;;;4.80;4.13;;;;;;;12.16;100.00;98798.50;5128784;28;20210;-70
2022/07/02 01:55:55;;;;;;;4.27;3.93;;;;;;;12.09;100.00;98791.88;5133139;28;20220;-70
2022/07/02 01:58:23;;;;;;;4.77;4.23;;;;;;;12.05;100.00;98795.69;5133442;28;20558;-70
2022/07/02 02:00:50;;;;;;;4.07;3.60;;;;;;;12.06;100.00;98792.94;5130989;28;20710;-70
2022/07/02 02:03:16;;;;;;;4.57;4.17;;;;;;;12.05;100.00;98799.16;5133189;28;20250;-70
2022/07/02 02:05:43;;;;;;;4.03;3.70;;;;;;;12.06;100.00;98794.72;5133368;28;20220;-70
2022/07/02 02:08:09;;;;;;;4.37;3.97;;;;;;;12.01;100.00;98789.75;5133374;28;20233;-70
2022/07/02 02:10:36;;;;;;;4.27;3.87;;;;;;;11.99;100.00;98798.72;5131729;28;20209;-69
2022/07/02 02:13:02;;;;;;;4.50;4.10;;;;;;;11.97;100.00;98797.94;5133135;28;20217;-69
2022/07/02 02:15:30;;;;;;;4.20;3.80;;;;;;;11.94;100.00;98798.16;5133274;28;20211;-69
2022/07/02 02:17:57;;;;;;;4.43;3.77;;;;;;;11.89;100.00;98801.13;5133301;28;20218;-69
2022/07/02 02:20:23;;;;;;;4.10;3.70;;;;;;;11.89;100.00;98802.91;5131462;28;20671;-69
2022/07/02 02:22:50;;;;;;;4.13;3.73;;;;;;;11.87;100.00;98802.16;5133033;28;20305;-69
2022/07/02 02:25:16;;;;;;;4.20;3.80;;;;;;;11.85;100.00;98790.78;5133114;28;20209;-69
2022/07/02 02:27:43;;;;;;;5.03;4.20;;;;;;;11.81;100.00;98798.09;5133125;28;20346;-69
2022/07/02 02:30:11;;;;;;;4.10;3.70;;;;;;;11.78;100.00;98786.84;5132811;28;20216;-69
2022/07/02 02:32:39;;;;;;;4.97;4.57;;;;;;;11.75;100.00;98787.88;5133157;28;20222;-69
2022/07/02 02:35:06;;;;;;;5.27;4.47;;;;;;;11.79;100.00;98785.91;5132816;27;20214;-69
2022/07/02 02:37:33;;;;;;;4.67;4.27;;;;;;;11.82;100.00;98783.91;5136144;27;20264;-69
2022/07/02 02:39:59;;;;;;;4.37;3.97;;;;;;;11.83;100.00;98782.09;5137060;27;20215;-69
2022/07/02 02:42:26;;;;;;;5.27;3.93;;;;;;;11.78;100.00;98785.06;5137058;27;20217;-69
2022/07/02 02:44:53;;;;;;;5.40;4.17;;;;;;;11.79;100.00;98786.75;5136935;27;20206;-69
2022/07/02 02:47:21;;;;;;;4.60;4.20;;;;;;;11.76;100.00;98791.41;5134842;27;20226;-69
2022/07/02 02:49:49;;;;;;;5.20;4.43;;;;;;;11.74;100.00;98785.34;5136545;27;20584;-69
2022/07/02 02:52:16;;;;;;;4.57;4.17;;;;;;;11.73;100.00;98788.94;5136854;27;20217;-69
2022/07/02 02:54:43;;;;;;;5.47;4.40;;;;;;;11.75;100.00;98789.69;5136843;27;20579;-69
2022/07/02 02:57:10;;;;;;;4.63;4.00;;;;;;;11.75;100.00;98792.34;5136830;27;20216;-69
2022/07/02 02:59:36;;;;;;;4.67;4.27;;;;;;;11.74;100.00;98788.00;5136502;27;20213;-69
2022/07/02 03:02:03;;;;;;;4.70;4.30;;;;;;;11.72;100.00;98787.22;5135002;27;20206;-69
2022/07/02 03:04:29;;;;;;;4.83;4.43;;;;;;;11.75;100.00;98802.94;5136566;27;20216;-69
2022/07/02 03:06:57;;;;;;;5.50;5.00;;;;;;;11.73;100.00;98792.44;5136310;27;20217;-69
2022/07/02 03:09:24;;;;;;;4.53;4.13;;;;;;;11.68;100.00;98798.97;5136041;27;20229;-69
2022/07/02 03:11:50;;;;;;;5.20;4.50;;;;;;;11.69;100.00;98798.03;5134657;27;20225;-69
2022/07/02 03:14:17;;;;;;;4.47;4.07;;;;;;;11.68;100.00;98791.03;5136173;27;20225;-69
2022/07/02 03:16:43;;;;;;;6.60;4.50;;;;;;;11.67;100.00;98792.00;5136698;27;20221;-69
2022/07/02 03:19:10;;;;;;;4.27;3.90;;;;;;;11.67;100.00;98800.75;5136169;27;20309;-69
2022/07/02 03:21:36;;;;;;;4.23;3.77;;;;;;;11.63;100.00;98796.59;5135748;27;20296;-69
2022/07/02 03:24:05;;;;;;;4.00;3.70;;;;;;;11.63;100.00;98795.78;5136402;27;20249;-69
2022/07/02 03:26:31;;;;;;;4.10;3.70;;;;;;;11.59;100.00;98796.91;5135910;27;20206;-69
2022/07/02 03:28:58;;;;;;;4.17;3.77;;;;;;;11.58;100.00;98797.81;5135996;27;20232;-69
2022/07/02 03:31:24;;;;;;;4.50;4.10;;;;;;;11.59;100.00;98802.19;5135676;27;20258;-69
2022/07/02 03:33:51;;;;;;;5.83;4.07;;;;;;;11.59;100.00;98799.53;5135820;27;20217;-70
2022/07/02 03:36:18;;;;;;;3.70;3.40;;;;;;;11.60;100.00;98799.44;5135884;27;20217;-69
2022/07/02 03:38:44;;;;;;;4.40;3.60;;;;;;;11.66;100.00;98806.16;5134070;27;20632;-69
2022/07/02 03:41:12;;;;;;;4.40;4.00;;;;;;;11.67;100.00;98811.34;5135513;27;20216;-69
2022/07/02 03:43:38;;;;;;;4.00;3.70;;;;;;;11.69;100.00;98809.44;5135688;27;20206;-69
2022/07/02 03:46:05;;;;;;;4.10;3.70;;;;;;;11.70;100.00;98810.31;5125465;27;20205;-69
2022/07/02 03:48:32;;;;;;;5.30;4.00;;;;;;;11.71;100.00;98812.88;5135186;27;20234;-69
2022/07/02 03:50:58;;;;;;;4.27;3.90;;;;;;;11.74;100.00;98822.44;5135581;27;20217;-69
2022/07/02 03:53:25;;;;;;;5.87;3.63;;;;;;;11.82;100.00;98815.69;5135706;27;20239;-69
2022/07/02 03:55:51;;;;;;;4.40;4.00;;;;;;;11.83;100.00;98817.41;5135227;27;20217;-69
2022/07/02 03:58:19;;;;;;;5.77;3.90;;;;;;;11.87;100.00;98813.59;5135355;27;20225;-69
2022/07/02 04:00:46;;;;;;;4.33;3.60;;;;;;;11.85;100.00;98820.78;5135522;27;20298;-69
2022/07/02 04:03:12;;;;;;;3.90;3.50;;;;;;;11.88;100.00;98819.75;5129655;27;20230;-68
2022/07/02 04:05:39;;;;;;;4.07;3.70;;;;;;;11.89;100.00;98816.16;5134503;27;20525;-69
2022/07/02 04:08:05;;;;;;;5.57;3.60;;;;;;;11.94;100.00;98819.34;5134927;27;20212;-69
2022/07/02 04:10:32;;;;;;;5.83;3.87;;;;;;;11.98;100.00;98815.56;5135272;27;20298;-69
2022/07/02 04:12:58;;;;;;;4.20;3.80;;;;;;;12.02;100.00;98817.06;5135148;27;20296;-69
2022/07/02 04:15:26;;;;;;;4.67;4.17;;;;;;;12.09;100.00;98813.94;5135142;27;20228;-69
2022/07/02 04:17:53;;;;;;;4.13;3.73;;;;;;;12.10;100.00;98809.50;5135182;27;20224;-69
2022/07/02 04:20:19;;;;;;;5.50;4.07;;;;;;;12.15;100.00;98817.97;5134754;27;20221;-69
2022/07/02 04:22:46;;;;;;;5.20;4.40;;;;;;;12.18;100.00;98817.78;5134708;27;20296;-69
2022/07/02 04:25:12;;;;;;;5.87;4.10;;;;;;;12.20;100.00;98815.88;5125002;27;20588;-69
2022/07/02 04:27:39;;;;;;;4.80;4.40;;;;;;;12.23;100.00;98810.41;5134828;27;20690;-69
2022/07/02 04:30:06;;;;;;;4.77;4.13;;;;;;;12.32;100.00;98815.94;5132853;27;20256;-69
2022/07/02 04:32:34;;;;;;;4.23;3.80;;;;;;;12.33;100.00;98816.78;5134763;27;20216;-69
2022/07/02 04:35:01;;;;;;;5.13;4.17;;;;;;;12.33;100.00;98816.78;5134465;27;20304;-69
2022/07/02 04:37:27;;;;;;;6.63;4.27;;;;;;;12.41;100.00;98814.50;5134800;27;20241;-69
2022/07/02 04:39:54;;;;;;;9.00;6.03;;;;;;;12.47;100.00;98816.75;5134775;27;20209;-69
2022/07/02 04:42:21;;;;;;;7.60;6.90;;;;;;;12.55;100.00;98817.94;5134710;27;20212;-69
2022/07/02 04:44:47;;;;;;;7.83;6.90;;;;;;;12.60;100.00;98818.47;5134430;27;20585;-69
2022/07/02 04:47:14;;;;;;;6.90;5.73;;;;;;;12.63;100.00;98826.22;5134296;27;20667;-69
2022/07/02 04:49:42;;;;;;;6.13;4.97;;;;;;;12.68;100.00;98829.44;5134272;27;20230;-69
2022/07/02 04:52:08;;;;;;;9.37;4.80;;;;;;;12.75;100.00;98827.19;5134306;27;20307;-69
2022/07/02 04:54:35;;;;;;;8.83;5.93;;;;;;;12.82;100.00;98821.38;5134357;27;20209;-69
2022/07/02 04:57:01;;;;;;;6.37;5.27;;;;;;;12.93;100.00;98818.00;5132818;27;20241;-69
2022/07/02 04:59:28;;;;;;;9.70;8.13;;;;;;;13.51;100.00;98813.91;5133577;27;20216;-70
2022/07/02 05:01:54;;;;;;;8.90;6.90;;;;;;;14.08;100.00;98811.56;5134459;27;20211;-69
2022/07/02 05:04:21;;;;;;;7.37;6.07;;;;;;;14.52;100.00;98806.53;5134376;27;20214;-70
2022/07/02 05:06:49;;;;;;;7.67;6.97;;;;;;;15.39;100.00;98811.28;5134092;27;20590;-70
2022/07/02 05:09:15;;;;;;;8.00;7.17;;;;;;;16.22;100.00;98790.28;5133726;27;20237;-70
2022/07/02 05:11:42;;;;;;;7.27;6.50;;;;;;;16.91;100.00;98791.63;5133659;27;20217;-70
2022/07/02 05:14:08;;;;;;;6.10;5.50;;;;;;;17.50;100.00;98780.22;5133801;27;20213;-70
2022/07/02 05:16:35;;;;;;;6.33;4.80;;;;;;;17.89;100.00;98776.72;5134155;27;20216;-70
2022/07/02 05:19:01;;;;;;;5.10;4.23;;;;;;;18.52;100.00;98770.97;5133759;27;20223;-70
2022/07/02 05:21:28;;;;;;;5.93;4.40;;;;;;;19.01;100.00;98772.66;5131986;27;20215;-70
2022/07/02 05:23:56;;;;;;;4.90;3.97;;;;;;;19.56;100.00;98764.63;5133656;27;20217;-70
2022/07/02 05:26:22;;;;;;;3.60;3.30;;;;;;;20.08;100.00;98771.22;5133745;27;20209;-70
2022/07/02 05:28:49;;;;;;;3.90;3.50;;;;;;;20.57;100.00;98790.41;5133740;27;20240;-70
2022/07/02 05:31:15;;;;;;;4.50;3.00;;;;;;;21.10;100.00;98826.19;5133616;27;20209;-70
2022/07/02 05:33:42;;;;;;;3.17;2.80;;;;;;;21.79;100.00;98845.06;5133430;27;20209;-70
2022/07/02 05:36:08;;;;;;;2.83;2.60;;;;;;;22.42;98.18;98843.69;5133174;27;20223;-70
2022/07/02 05:38:35;;;;;;;3.73;2.70;;;;;;;22.92;81.82;98848.09;5128415;27;20216;-70
2022/07/02 05:41:03;;;;;;;2.70;2.50;;;;;;;23.40;74.52;98848.16;5131309;27;20215;-70
2022/07/02 05:43:30;;;;;;;2.43;2.23;;;;;;;23.77;70.60;98850.34;5128553;27;20232;-70
2022/07/02 05:45:56;;;;;;;2.80;2.30;;;;;;;24.26;67.48;98855.44;5133648;27;20225;-70
2022/07/02 05:48:23;;;;;;;2.67;2.47;;;;;;;24.62;65.59;98850.47;5132012;27;20228;-70
2022/07/02 05:50:49;;;;;;;2.50;2.23;;;;;;;25.03;64.52;98855.44;5133444;27;20208;-70
2022/07/02 05:53:16;;;;;;;4.57;2.70;;;;;;;25.29;61.87;98852.41;5133589;28;20216;-70
2022/07/02 05:55:43;;;;;;;2.63;2.20;;;;;;;25.35;60.16;98854.41;5133764;28;20224;-70
2022/07/02 05:58:12;;;;;;;2.33;2.00;;;;;;;25.40;60.42;98855.53;5133775;28;20205;-70
2022/07/02 06:00:39;;;;;;;3.70;2.17;;;;;;;25.66;58.78;98855.16;5133588;28;20304;-71
2022/07/02 06:03:05;;;;;;;2.27;1.90;;;;;;;25.75;57.27;98854.88;5133202;28;20215;-70
2022/07/02 06:08:15;;;;;;;5.00;1.77;;;;;;;26.29;55.57;98850.97;5133330;28;20667;-71
2022/07/02 06:10:42;;;;;;;1.90;1.80;;;;;;;26.33;55.60;98859.56;5134933;27;20709;-70
2022/07/02 06:13:09;;;;;;;2.00;1.70;;;;;;;26.55;55.52;98848.63;5137456;27;20583;-70
2022/07/02 06:15:36;;;;;;;1.90;1.77;;;;;;;26.81;55.01;98853.53;5136718;27;20209;-70
2022/07/02 06:18:03;;;;;;;2.30;1.70;;;;;;;26.85;53.30;98854.81;5137797;27;20296;-70
2022/07/02 06:20:30;;;;;;;1.80;1.70;;;;;;;26.85;53.70;98855.66;5137284;27;20213;-70
2022/07/02 06:22:57;;;;;;;1.60;1.50;;;;;;;27.05;53.27;98851.28;5137193;27;20209;-70
2022/07/02 06:25:23;;;;;;;3.00;1.73;;;;;;;27.30;52.20;98847.22;5127487;27;20209;-70
2022/07/02 06:27:50;;;;;;;1.83;1.70;;;;;;;27.42;51.52;98852.97;5137458;27;20205;-70
2022/07/02 06:30:17;;;;;;;1.60;1.50;;;;;;;27.50;52.33;98856.38;5137430;27;20606;-71
2022/07/02 06:32:45;;;;;;;1.40;1.30;;;;;;;27.66;51.63;98856.97;5137232;27;20209;-69
2022/07/02 06:35:12;;;;;;;2.13;1.20;;;;;;;27.80;50.78;98852.47;5137227;27;20209;-69
2022/07/02 06:37:39;;;;;;;1.57;1.30;;;;;;;28.01;49.77;98849.72;5136981;27;20238;-68
2022/07/02 06:40:07;;;;;;;1.50;1.10;;;;;;;27.96;49.63;98852.19;5135686;27;20221;-68
2022/07/02 06:42:33;;;;;;;1.00;0.90;;;;;;;27.90;50.67;98850.28;5137076;27;20693;-69
2022/07/02 06:45:00;;;;;;;1.80;1.27;;;;;;;28.01;51.11;98845.13;5137567;27;20210;-69
2022/07/02 06:47:27;;;;;;;1.07;1.00;;;;;;;28.10;49.58;98837.66;5137170;27;20209;-70
2022/07/02 06:49:57;;;;;;;1.20;1.10;;;;;;;28.27;49.17;98841.72;5137146;27;20244;-69
2022/07/02 06:52:25;;;;;;;1.20;1.00;;;;;;;28.42;48.99;98842.50;5132485;27;20214;-70
2022/07/02 06:54:51;;;;;;;1.27;1.17;;;;;;;28.54;48.32;98846.28;5130944;27;20701;-69
2022/07/02 06:57:18;;;;;;;1.70;1.20;;;;;;;28.38;48.61;98835.78;5137208;27;20209;-70
2022/07/02 06:59:44;;;;;;;1.23;1.13;;;;;;;28.20;49.19;98844.41;5137051;27;20292;-70
2022/07/02 07:02:11;;;;;;;1.83;1.10;;;;;;;28.32;49.11;98844.69;5137130;27;20209;-70
2022/07/02 07:04:38;;;;;;;1.27;1.00;;;;;;;27.99;49.33;98847.19;5136892;27;20663;-70
2022/07/02 07:07:08;;;;;;;1.60;1.07;;;;;;;27.68;50.10;98843.16;5135333;27;20210;-70
2022/07/02 07:09:34;;;;;;;1.10;0.83;;;;;;;27.34;51.66;98841.19;5136449;27;20706;-69
2022/07/02 07:12:04;;;;;;;1.43;1.00;;;;;;;27.02;52.96;98847.09;5137091;27;20224;-70
2022/07/02 07:14:31;;;;;;;1.73;1.10;;;;;;;26.20;54.79;98846.63;5136551;27;20263;-69
2022/07/02 07:16:57;;;;;;;0.87;0.87;;;;;;;25.29;59.88;98850.53;5136786;27;20526;-69
2022/07/02 07:19:24;;;;;;;1.00;0.90;;;;;;;24.00;64.01;98844.06;5136271;27;20213;-69
2022/07/02 07:21:51;;;;;;;0.97;0.90;;;;;;;22.91;69.61;98841.00;5135598;27;20213;-69
2022/07/02 07:24:19;;;;;;;1.00;0.90;;;;;;;22.23;73.88;98846.66;5136873;27;20529;-69
2022/07/02 07:26:45;;;;;;;1.07;0.90;;;;;;;21.82;77.24;98850.16;5136575;27;20292;-69
2022/07/02 07:29:12;;;;;;;2.13;0.90;;;;;;;21.48;77.66;98842.00;5136136;27;20213;-69
2022/07/02 07:31:39;;;;;;;2.30;0.90;;;;;;;21.30;79.09;98846.56;5129463;27;20322;-69
2022/07/02 07:34:06;;;;;;;1.00;0.80;;;;;;;21.13;78.13;98842.03;5136258;27;20220;-69
2022/07/02 07:36:33;;;;;;;0.80;0.80;;;;;;;21.03;76.32;98841.25;5135988;27;20251;-69
2022/07/02 07:39:01;;;;;;;0.80;0.80;;;;;;;21.00;78.24;98836.19;5126253;27;20679;-69
2022/07/02 07:41:30;;;;;;;1.40;0.73;;;;;;;21.01;79.87;98843.25;5135777;27;20751;-69
2022/07/02 07:43:56;;;;;;;0.80;0.80;;;;;;;21.00;80.06;98838.03;5135899;27;20679;-69
2022/07/02 07:46:23;;;;;;;0.90;0.90;;;;;;;20.95;79.25;98843.88;5136225;27;20568;-69
2022/07/02 07:48:51;;;;;;;1.13;0.90;;;;;;;20.88;79.60;98832.06;5135981;27;20209;-69
2022/07/02 07:51:18;;;;;;;1.90;0.90;;;;;;;20.95;82.03;98832.28;5135803;27;20233;-69
2022/07/02 07:53:45;;;;;;;0.70;0.70;;;;;;;21.06;81.29;98830.22;5136051;27;20600;-69
2022/07/02 07:56:12;;;;;;;0.70;0.70;;;;;;;21.16;77.87;98828.25;5135913;27;20219;-69
2022/07/02 07:58:40;;;;;;;0.80;0.80;;;;;;;21.17;77.98;98826.44;5134404;27;20627;-69
2022/07/02 08:01:07;;;;;;;1.03;0.80;;;;;;;21.16;77.01;98830.94;5135954;27;20211;-70
2022/07/02 08:03:33;;;;;;;1.90;0.70;;;;;;;21.17;77.74;98821.06;5135490;27;20205;-69
2022/07/02 08:06:02;;;;;;;1.80;0.80;;;;;;;21.18;76.62;98818.22;5135792;27;20212;-69
2022/07/02 08:08:28;;;;;;;1.20;0.70;;;;;;;21.22;77.34;98818.75;5135786;27;20218;-69
2022/07/02 08:10:55;;;;;;;0.70;0.70;;;;;;;21.31;79.22;98817.78;5135333;27;20710;-69
2022/07/02 08:13:21;;;;;;;0.80;0.80;;;;;;;21.44;76.35;98821.78;5135817;27;20213;-69
2022/07/02 08:15:49;;;;;;;0.70;0.70;;;;;;;21.40;77.98;98823.06;5135557;27;20244;-69
2022/07/02 08:18:16;;;;;;;0.70;0.70;;;;;;;21.58;77.38;98805.03;5135729;27;20328;-69
2022/07/02 08:20:42;;;;;;;0.80;0.80;;;;;;;21.65;77.26;98810.66;5135642;27;20232;-69
2022/07/02 08:23:09;;;;;;;0.60;0.60;;;;;;;21.74;70.82;98805.19;5135396;27;20212;-70
2022/07/02 08:25:35;;;;;;;0.70;0.70;;;;;;;21.71;68.49;98810.88;5133931;27;20228;-69
2022/07/02 08:28:03;;;;;;;1.17;1.07;;;;;;;21.74;71.19;98805.19;5135070;27;20216;-69
2022/07/02 08:30:30;;;;;;;1.43;0.90;;;;;;;21.81;68.95;98800.84;5134919;27;20252;-70
2022/07/02 08:32:58;;;;;;;0.70;0.70;;;;;;;21.95;67.36;98796.72;5134866;27;20205;-70
2022/07/02 08:35:24;;;;;;;0.70;0.70;;;;;;;21.94;65.06;98795.03;5134798;27;20674;-70
2022/07/02 08:37:52;;;;;;;0.83;0.70;;;;;;;21.97;63.76;98798.25;5135163;27;20241;-69
2022/07/02 08:40:22;;;;;;;0.70;0.70;;;;;;;22.03;65.16;98794.91;5135282;27;20214;-70
2022/07/02 08:42:51;;;;;;;1.90;0.73;;;;;;;22.06;66.21;98791.06;5134904;27;20213;-70
2022/07/02 08:45:22;;;;;;;0.90;0.70;;;;;;;22.14;63.51;98789.22;5135002;27;20210;-69
2022/07/02 08:47:50;;;;;;;1.03;0.80;;;;;;;22.16;65.02;98784.53;5135088;27;20304;-70
2022/07/02 08:50:20;;;;;;;0.70;0.70;;;;;;;22.26;64.88;98781.72;5134539;27;20244;-70
2022/07/02 08:52:49;;;;;;;0.70;0.60;;;;;;;22.22;62.56;98789.28;5132579;27;20210;-70
2022/07/02 08:55:16;;;;;;;1.07;0.90;;;;;;;22.27;66.48;98781.56;5126587;27;20240;-69
2022/07/02 08:57:47;;;;;;;0.90;0.90;;;;;;;22.34;66.63;98777.19;5134757;27;20217;-69
2022/07/02 09:00:15;;;;;;;0.90;0.80;;;;;;;22.41;64.50;98771.97;5130758;27;20205;-69
2022/07/02 09:02:43;;;;;;;3.93;0.80;;;;;;;22.52;64.90;98769.00;5134591;27;20697;-69
2022/07/02 09:05:11;;;;;;;0.97;0.83;;;;;;;22.55;64.26;98764.13;5134738;27;20576;-69
2022/07/02 09:07:40;;;;;;;1.00;0.90;;;;;;;22.51;66.21;98762.78;5134506;27;20216;-69
2022/07/02 09:10:07;;;;;;;1.00;0.87;;;;;;;22.61;69.74;98751.88;5134066;27;20233;-69
2022/07/02 09:12:35;;;;;;;1.07;0.77;;;;;;;22.74;63.48;98758.44;5134215;27;20304;-69
2022/07/02 09:15:02;;;;;;;0.87;0.70;;;;;;;22.79;61.58;98764.16;5134164;27;20241;-70
2022/07/02 09:17:29;;;;;;;1.30;0.77;;;;;;;22.74;62.14;98763.81;5132702;27;20308;-69
2022/07/02 09:19:55;;;;;;;0.97;0.90;;;;;;;22.82;62.06;98752.22;5134124;27;20592;-69
2022/07/02 09:22:32;;;;;;;0.70;0.70;;;;;;;22.83;62.59;98741.28;5134386;27;20215;-69
2022/07/02 09:25:08;;;;;;;1.03;0.80;;;;;;;22.81;59.90;98743.28;5134414;27;20221;-69
2022/07/02 09:27:34;;;;;;;1.97;0.93;;;;;;;22.81;64.21;98737.06;5134179;27;20249;-69
2022/07/02 09:30:01;;;;;;;1.37;0.70;;;;;;;22.95;60.46;98734.53;5133906;27;20233;-69
2022/07/02 09:32:27;;;;;;;1.00;0.87;;;;;;;22.91;62.11;98733.19;5134187;27;20209;-69
2022/07/02 09:34:54;;;;;;;0.70;0.70;;;;;;;23.03;59.73;98736.41;5132673;27;20209;-68
2022/07/02 09:37:23;;;;;;;0.70;0.70;;;;;;;23.07;60.34;98738.56;5131426;27;20241;-69
2022/07/02 09:39:52;;;;;;;1.33;0.80;;;;;;;23.01;55.82;98736.56;5133114;27;20213;-75
2022/07/02 09:42:27;;;;;;;0.73;0.73;;;;;;;23.05;60.68;98743.28;5133231;27;20582;-71
2022/07/02 09:44:54;;;;;;;0.90;0.90;;;;;;;23.10;59.00;98743.63;5129057;27;20215;-72
2022/07/02 09:47:30;;;;;;;1.60;0.70;;;;;;;23.19;61.00;98739.94;5132198;27;20851;-72
2022/07/02 09:49:57;;;;;;;1.10;1.00;;;;;;;23.34;60.63;98750.91;5133587;27;20217;-72
2022/07/02 09:52:23;;;;;;;1.00;0.90;;;;;;;23.31;59.83;98746.69;5133727;27;20750;-72
2022/07/02 09:54:50;;;;;;;0.80;0.60;;;;;;;23.36;59.47;98749.69;5130631;28;20217;-72
2022/07/02 09:57:16;;;;;;;0.80;0.80;;;;;;;23.38;56.72;98753.06;5133749;28;20220;-73
2022/07/02 09:59:44;;;;;;;0.90;0.90;;;;;;;23.46;56.63;98755.75;5133935;28;20216;-71
2022/07/02 10:02:26;;;;;;;1.50;0.77;;;;;;;23.50;54.05;98749.00;5133934;28;20212;-71
2022/07/02 10:04:53;;;;;;;2.00;0.80;;;;;;;23.52;52.61;98755.06;5132428;28;20216;-72
2022/07/02 10:07:21;;;;;;;1.67;0.70;;;;;;;23.51;52.17;98750.69;5133894;28;20212;-71
2022/07/02 10:09:48;;;;;;;1.23;0.70;;;;;;;23.64;54.12;98742.88;5132068;28;20217;-71
2022/07/02 10:12:16;;;;;;;1.00;0.90;;;;;;;23.66;53.86;98756.22;5133904;28;20216;-71
2022/07/02 10:14:46;;;;;;;0.70;0.70;;;;;;;23.71;52.51;98748.44;5133728;28;20217;-71
2022/07/02 10:17:14;;;;;;;0.60;0.60;;;;;;;23.76;52.99;98740.63;5133815;28;20292;-71
2022/07/02 10:19:41;;;;;;;1.57;0.80;;;;;;;23.88;56.37;98740.13;5133454;28;20296;-71
2022/07/02 10:22:08;;;;;;;0.80;0.70;;;;;;;23.93;55.45;98729.66;5133360;28;20210;-71
2022/07/02 10:24:36;;;;;;;0.77;0.70;;;;;;;23.98;52.86;98734.53;5133459;28;20681;-71
2022/07/02 10:27:04;;;;;;;0.83;0.80;;;;;;;23.93;52.91;98726.09;5131685;28;20714;-71
2022/07/02 10:29:31;;;;;;;1.10;0.80;;;;;;;23.95;53.28;98719.50;5130784;28;20228;-74
2022/07/02 10:32:07;;;;;;;0.87;0.60;;;;;;;24.01;50.74;98718.81;5131117;28;20242;-73
2022/07/02 10:34:46;;;;;;;0.80;0.80;;;;;;;24.01;52.03;98715.28;5124031;28;20206;-73
2022/07/02 10:37:13;;;;;;;1.27;0.80;;;;;;;24.04;50.99;98713.06;5130431;28;20686;-73
2022/07/02 10:39:40;;;;;;;0.77;0.77;;;;;;;24.12;50.88;98704.91;5132039;28;20270;-73
2022/07/02 10:42:08;;;;;;;0.90;0.70;;;;;;;24.04;51.67;98702.28;5131736;28;20213;-74
2022/07/02 10:44:38;;;;;;;0.90;0.70;;;;;;;24.04;51.30;98718.47;5132028;28;20217;-72
2022/07/02 10:47:06;;;;;;;1.07;0.80;;;;;;;24.18;51.49;98711.47;5132146;28;20561;-71
2022/07/02 10:49:33;;;;;;;0.70;0.70;;;;;;;24.18;48.43;98715.03;5130801;28;20206;-72
2022/07/02 10:52:03;;;;;;;0.70;0.70;;;;;;;24.13;49.74;98703.91;5132107;28;20237;-73
2022/07/02 10:54:33;;;;;;;0.80;0.70;;;;;;;24.20;47.60;98702.16;5132235;28;20619;-74
2022/07/02 10:57:00;;;;;;;0.83;0.77;;;;;;;24.27;50.14;98707.72;5132683;27;20701;-74
2022/07/02 10:59:34;;;;;;;1.90;0.67;;;;;;;24.36;48.44;98696.69;5136137;27;20313;-72
2022/07/02 11:02:01;;;;;;;0.60;0.60;;;;;;;24.45;50.58;98695.59;5134382;27;20213;-74
2022/07/02 11:04:29;;;;;;;1.97;0.63;;;;;;;24.47;47.20;98701.69;5134530;27;20213;-73
2022/07/02 11:07:08;;;;;;;0.80;0.60;;;;;;;24.45;47.71;98700.16;5135630;27;20227;-73
2022/07/02 11:09:46;;;;;;;1.50;0.60;;;;;;;24.43;48.96;98697.63;5132438;27;20217;-73
2022/07/02 11:12:16;;;;;;;1.40;0.77;;;;;;;24.53;52.02;98698.25;5135666;27;20251;-73
2022/07/02 11:14:54;;;;;;;0.60;0.60;;;;;;;24.63;49.17;98693.47;5135331;27;20324;-73
2022/07/02 11:17:22;;;;;;;0.83;0.77;;;;;;;24.72;49.39;98697.81;5135484;27;20570;-73
2022/07/02 11:19:54;;;;;;;1.43;0.70;;;;;;;24.69;49.47;98692.75;5128026;27;20210;-73
2022/07/02 11:22:21;;;;;;;1.23;0.80;;;;;;;24.78;50.26;98690.81;5135680;27;20392;-73
2022/07/02 11:24:48;;;;;;;0.60;0.60;;;;;;;24.81;48.42;98688.59;5135173;27;20209;-73
2022/07/02 11:27:15;;;;;;;1.03;0.70;;;;;;;24.90;45.77;98684.81;5134862;27;20205;-74
2022/07/02 11:29:52;;;;;;;1.77;0.70;;;;;;;24.79;43.31;98687.94;5133324;27;20211;-74
2022/07/02 11:32:19;;;;;;;1.37;0.87;;;;;;;24.87;45.62;98677.03;5135157;27;20244;-73
2022/07/02 11:34:45;;;;;;;0.90;0.70;;;;;;;24.88;48.71;98667.91;5134671;27;20566;-74
2022/07/02 11:37:22;;;;;;;0.70;0.70;;;;;;;25.00;45.50;98666.44;5134902;27;20237;-74
2022/07/02 11:39:48;;;;;;;1.37;0.70;;;;;;;24.95;47.24;98674.28;5134701;27;20274;-74